sensor_id;sensor_type;location;lat;lon;timestamp;temperature;humidity
5210;DHT22;2624;48.048;11.706;2023-02-15T00:00:44;0.50;99.90
5210;DHT22;2624;48.048;11.706;2023-02-15T00:05:47;0.90;99.90
5210;DHT22;2624;48.048;11.706;2023-02-15T00:10:48;1.20;99.90
5210;DHT22;2624;48.048;11.706;2023-02-15T00:15:50;1.30;99.90
5210;DHT22;2624;48.048;11.706;2023-02-15T00:20:53;1.30;99.90
5210;DHT22;2624;48.048;11.706;2023-02-15T00:26:04;1.20;99.90
5210;DHT22;2624;48.048;11.706;2023-02-15T00:31:07;0.10;99.90
5210;DHT22;2624;48.048;11.706;2023-02-15T00:36:12;0.70;99.90
5210;DHT22;2624;48.048;11.706;2023-02-15T00:41:14;0.50;99.90
5210;DHT22;2624;48.048;11.706;2023-02-15T00:46:16;1.00;99.90
5210;DHT22;2624;48.048;11.706;2023-02-15T00:51:19;0.80;99.90
5210;DHT22;2624;48.048;11.706;2023-02-15T00:56:21;0.50;99.90
5210;DHT22;2624;48.048;11.706;2023-02-15T01:01:23;0.90;99.90
5210;DHT22;2624;48.048;11.706;2023-02-15T01:06:27;0.90;99.90
5210;DHT22;2624;48.048;11.706;2023-02-15T01:11:29;0.30;99.90
5210;DHT22;2624;48.048;11.706;2023-02-15T01:16:31;0.20;99.90
5210;DHT22;2624;48.048;11.706;2023-02-15T01:21:34;0.50;99.90
5210;DHT22;2624;48.048;11.706;2023-02-15T01:26:36;-0.10;99.90
5210;DHT22;2624;48.048;11.706;2023-02-15T01:31:37;0.10;99.90
5210;DHT22;2624;48.048;11.706;2023-02-15T01:36:41;0.70;99.90
5210;DHT22;2624;48.048;11.706;2023-02-15T01:41:43;-0.10;99.90
5210;DHT22;2624;48.048;11.706;2023-02-15T01:46:50;-0.50;99.90
5210;DHT22;2624;48.048;11.706;2023-02-15T01:51:55;-0.70;99.90
5210;DHT22;2624;48.048;11.706;2023-02-15T01:57:00;-1.30;99.90
5210;DHT22;2624;48.048;11.706;2023-02-15T02:02:05;-1.10;99.90
5210;DHT22;2624;48.048;11.706;2023-02-15T02:07:12;-0.50;99.90
5210;DHT22;2624;48.048;11.706;2023-02-15T02:12:16;-0.80;99.90
5210;DHT22;2624;48.048;11.706;2023-02-15T02:17:24;-0.50;99.90
5210;DHT22;2624;48.048;11.706;2023-02-15T02:28:06;-0.80;99.90
5210;DHT22;2624;48.048;11.706;2023-02-15T02:33:32;-0.90;99.90
5210;DHT22;2624;48.048;11.706;2023-02-15T02:38:46;-0.90;99.90
5210;DHT22;2624;48.048;11.706;2023-02-15T02:43:53;-0.50;99.90
5210;DHT22;2624;48.048;11.706;2023-02-15T02:48:57;-0.60;99.90
5210;DHT22;2624;48.048;11.706;2023-02-15T02:54:01;-0.50;99.90
5210;DHT22;2624;48.048;11.706;2023-02-15T02:59:07;-0.80;99.90
5210;DHT22;2624;48.048;11.706;2023-02-15T03:04:14;-1.00;99.90
5210;DHT22;2624;48.048;11.706;2023-02-15T03:09:22;-1.40;99.90
5210;DHT22;2624;48.048;11.706;2023-02-15T03:14:25;-0.50;99.90
5210;DHT22;2624;48.048;11.706;2023-02-15T03:19:31;0.00;99.90
5210;DHT22;2624;48.048;11.706;2023-02-15T03:24:36;0.10;99.90
5210;DHT22;2624;48.048;11.706;2023-02-15T03:29:39;0.20;99.90
5210;DHT22;2624;48.048;11.706;2023-02-15T03:34:43;0.40;99.90
5210;DHT22;2624;48.048;11.706;2023-02-15T03:39:49;0.40;99.90
5210;DHT22;2624;48.048;11.706;2023-02-15T03:44:57;0.00;99.90
5210;DHT22;2624;48.048;11.706;2023-02-15T03:50:03;-0.20;99.90
5210;DHT22;2624;48.048;11.706;2023-02-15T03:55:25;0.30;99.90
5210;DHT22;2624;48.048;11.706;2023-02-15T04:00:27;0.40;99.90
5210;DHT22;2624;48.048;11.706;2023-02-15T04:05:48;0.30;99.90
5210;DHT22;2624;48.048;11.706;2023-02-15T04:10:50;-0.50;99.90
5210;DHT22;2624;48.048;11.706;2023-02-15T04:15:56;-0.80;99.90
5210;DHT22;2624;48.048;11.706;2023-02-15T04:21:08;-1.10;99.90
5210;DHT22;2624;48.048;11.706;2023-02-15T04:26:28;-1.20;99.90
5210;DHT22;2624;48.048;11.706;2023-02-15T04:31:29;-0.90;99.90
5210;DHT22;2624;48.048;11.706;2023-02-15T04:36:32;-0.90;99.90
5210;DHT22;2624;48.048;11.706;2023-02-15T04:41:34;0.00;99.90
5210;DHT22;2624;48.048;11.706;2023-02-15T04:46:36;-0.90;99.90
5210;DHT22;2624;48.048;11.706;2023-02-15T04:51:39;-0.40;99.90
5210;DHT22;2624;48.048;11.706;2023-02-15T04:56:42;-0.10;99.90
5210;DHT22;2624;48.048;11.706;2023-02-15T05:01:44;0.00;99.90
5210;DHT22;2624;48.048;11.706;2023-02-15T05:06:47;0.20;99.90
5210;DHT22;2624;48.048;11.706;2023-02-15T05:11:48;-0.30;99.90
5210;DHT22;2624;48.048;11.706;2023-02-15T05:16:50;-0.90;99.90
5210;DHT22;2624;48.048;11.706;2023-02-15T05:21:55;-0.90;99.90
5210;DHT22;2624;48.048;11.706;2023-02-15T05:26:57;-0.50;99.90
5210;DHT22;2624;48.048;11.706;2023-02-15T05:32:16;-0.10;99.90
5210;DHT22;2624;48.048;11.706;2023-02-15T05:37:19;0.00;99.90
5210;DHT22;2624;48.048;11.706;2023-02-15T05:42:21;0.00;99.90
5210;DHT22;2624;48.048;11.706;2023-02-15T05:47:23;0.00;99.90
5210;DHT22;2624;48.048;11.706;2023-02-15T05:52:26;0.00;99.90
5210;DHT22;2624;48.048;11.706;2023-02-15T05:57:28;-0.90;99.90
5210;DHT22;2624;48.048;11.706;2023-02-15T06:02:33;-1.70;99.90
5210;DHT22;2624;48.048;11.706;2023-02-15T06:07:36;-1.50;99.90
5210;DHT22;2624;48.048;11.706;2023-02-15T06:12:38;-0.90;99.90
5210;DHT22;2624;48.048;11.706;2023-02-15T06:17:40;-1.30;99.90
5210;DHT22;2624;48.048;11.706;2023-02-15T06:22:44;-0.60;99.90
5210;DHT22;2624;48.048;11.706;2023-02-15T06:27:45;-1.30;99.90
5210;DHT22;2624;48.048;11.706;2023-02-15T06:32:47;-1.10;99.90
5210;DHT22;2624;48.048;11.706;2023-02-15T06:37:50;-1.70;99.90
5210;DHT22;2624;48.048;11.706;2023-02-15T06:42:52;-1.20;99.90
5210;DHT22;2624;48.048;11.706;2023-02-15T06:47:54;-1.10;99.90
5210;DHT22;2624;48.048;11.706;2023-02-15T06:52:57;-0.80;99.90
5210;DHT22;2624;48.048;11.706;2023-02-15T06:57:59;-1.20;99.90
5210;DHT22;2624;48.048;11.706;2023-02-15T07:03:01;-1.00;99.90
5210;DHT22;2624;48.048;11.706;2023-02-15T07:08:05;-0.70;99.90
5210;DHT22;2624;48.048;11.706;2023-02-15T07:13:06;-0.50;99.90
5210;DHT22;2624;48.048;11.706;2023-02-15T07:18:08;-1.00;99.90
5210;DHT22;2624;48.048;11.706;2023-02-15T07:23:12;-1.60;99.90
5210;DHT22;2624;48.048;11.706;2023-02-15T07:28:14;-0.70;99.90
5210;DHT22;2624;48.048;11.706;2023-02-15T07:33:16;-0.70;99.90
5210;DHT22;2624;48.048;11.706;2023-02-15T07:38:27;-0.50;99.90
5210;DHT22;2624;48.048;11.706;2023-02-15T07:43:29;-0.40;99.90
5210;DHT22;2624;48.048;11.706;2023-02-15T07:48:31;-0.40;99.90
5210;DHT22;2624;48.048;11.706;2023-02-15T07:53:35;-0.30;99.90
5210;DHT22;2624;48.048;11.706;2023-02-15T07:58:37;-0.40;99.90
5210;DHT22;2624;48.048;11.706;2023-02-15T08:03:56;-0.40;99.90
5210;DHT22;2624;48.048;11.706;2023-02-15T08:09:00;-0.40;99.90
5210;DHT22;2624;48.048;11.706;2023-02-15T08:14:04;-0.30;99.90
5210;DHT22;2624;48.048;11.706;2023-02-15T08:19:08;-0.40;99.90
5210;DHT22;2624;48.048;11.706;2023-02-15T08:24:13;-0.50;99.90
5210;DHT22;2624;48.048;11.706;2023-02-15T08:29:16;-1.20;99.90
5210;DHT22;2624;48.048;11.706;2023-02-15T08:34:19;-1.10;99.90
5210;DHT22;2624;48.048;11.706;2023-02-15T08:39:23;-1.00;99.90
5210;DHT22;2624;48.048;11.706;2023-02-15T08:44:24;-0.70;99.90
5210;DHT22;2624;48.048;11.706;2023-02-15T08:49:26;-1.10;99.90
5210;DHT22;2624;48.048;11.706;2023-02-15T08:54:29;-0.80;99.90
5210;DHT22;2624;48.048;11.706;2023-02-15T08:59:31;-1.00;99.90
5210;DHT22;2624;48.048;11.706;2023-02-15T09:04:33;-0.90;99.90
5210;DHT22;2624;48.048;11.706;2023-02-15T09:09:36;-0.60;99.90
5210;DHT22;2624;48.048;11.706;2023-02-15T09:14:38;-0.20;99.90
5210;DHT22;2624;48.048;11.706;2023-02-15T09:19:40;0.10;99.90
5210;DHT22;2624;48.048;11.706;2023-02-15T09:24:43;0.50;99.90
5210;DHT22;2624;48.048;11.706;2023-02-15T09:29:45;0.50;99.90
5210;DHT22;2624;48.048;11.706;2023-02-15T09:34:47;0.90;99.90
5210;DHT22;2624;48.048;11.706;2023-02-15T09:39:50;1.40;99.90
5210;DHT22;2624;48.048;11.706;2023-02-15T09:45:03;1.60;99.90
5210;DHT22;2624;48.048;11.706;2023-02-15T09:50:12;1.40;99.90
5210;DHT22;2624;48.048;11.706;2023-02-15T09:55:28;1.80;99.90
5210;DHT22;2624;48.048;11.706;2023-02-15T10:00:44;1.90;99.90
5210;DHT22;2624;48.048;11.706;2023-02-15T10:06:03;1.60;99.90
5210;DHT22;2624;48.048;11.706;2023-02-15T10:11:15;2.30;99.90
5210;DHT22;2624;48.048;11.706;2023-02-15T10:16:43;3.10;99.90
5210;DHT22;2624;48.048;11.706;2023-02-15T10:21:59;2.70;99.90
5210;DHT22;2624;48.048;11.706;2023-02-15T10:27:09;3.10;99.90
5210;DHT22;2624;48.048;11.706;2023-02-15T10:32:21;3.80;99.90
5210;DHT22;2624;48.048;11.706;2023-02-15T10:37:42;2.70;99.90
5210;DHT22;2624;48.048;11.706;2023-02-15T10:42:59;3.30;99.90
5210;DHT22;2624;48.048;11.706;2023-02-15T10:48:21;3.90;99.90
5210;DHT22;2624;48.048;11.706;2023-02-15T10:53:38;3.10;99.90
5210;DHT22;2624;48.048;11.706;2023-02-15T10:58:57;3.70;99.90
5210;DHT22;2624;48.048;11.706;2023-02-15T11:09:34;3.20;99.90
5210;DHT22;2624;48.048;11.706;2023-02-15T11:14:43;3.90;99.90
5210;DHT22;2624;48.048;11.706;2023-02-15T11:19:55;3.30;99.90
5210;DHT22;2624;48.048;11.706;2023-02-15T11:24:58;3.90;99.90
5210;DHT22;2624;48.048;11.706;2023-02-15T11:30:09;4.10;99.90
5210;DHT22;2624;48.048;11.706;2023-02-15T11:35:23;3.50;99.90
5210;DHT22;2624;48.048;11.706;2023-02-15T11:40:28;4.80;99.90
5210;DHT22;2624;48.048;11.706;2023-02-15T11:45:34;5.00;99.90
5210;DHT22;2624;48.048;11.706;2023-02-15T11:50:36;6.20;99.90
5210;DHT22;2624;48.048;11.706;2023-02-15T11:55:38;4.60;99.90
5210;DHT22;2624;48.048;11.706;2023-02-15T12:00:43;4.50;99.90
5210;DHT22;2624;48.048;11.706;2023-02-15T12:05:47;5.30;99.90
5210;DHT22;2624;48.048;11.706;2023-02-15T12:10:58;4.70;99.90
5210;DHT22;2624;48.048;11.706;2023-02-15T12:16:07;5.10;99.90
5210;DHT22;2624;48.048;11.706;2023-02-15T12:21:15;5.60;99.90
5210;DHT22;2624;48.048;11.706;2023-02-15T12:26:23;5.70;99.90
5210;DHT22;2624;48.048;11.706;2023-02-15T12:31:31;6.10;99.90
5210;DHT22;2624;48.048;11.706;2023-02-15T12:36:41;8.30;99.90
5210;DHT22;2624;48.048;11.706;2023-02-15T12:41:46;8.50;99.90
5210;DHT22;2624;48.048;11.706;2023-02-15T12:46:58;7.60;99.90
5210;DHT22;2624;48.048;11.706;2023-02-15T12:52:02;6.90;99.90
5210;DHT22;2624;48.048;11.706;2023-02-15T12:57:26;8.50;99.90
5210;DHT22;2624;48.048;11.706;2023-02-15T13:02:33;7.90;99.90
5210;DHT22;2624;48.048;11.706;2023-02-15T13:07:37;8.70;99.90
5210;DHT22;2624;48.048;11.706;2023-02-15T13:12:38;7.10;99.90
5210;DHT22;2624;48.048;11.706;2023-02-15T13:17:48;8.00;99.90
5210;DHT22;2624;48.048;11.706;2023-02-15T13:22:53;7.40;99.90
5210;DHT22;2624;48.048;11.706;2023-02-15T13:27:58;8.00;99.90
5210;DHT22;2624;48.048;11.706;2023-02-15T13:33:06;7.80;99.90
5210;DHT22;2624;48.048;11.706;2023-02-15T13:38:36;7.00;99.90
5210;DHT22;2624;48.048;11.706;2023-02-15T13:43:50;8.70;99.90
5210;DHT22;2624;48.048;11.706;2023-02-15T13:49:06;8.30;99.90
5210;DHT22;2624;48.048;11.706;2023-02-15T13:54:29;8.10;99.90
5210;DHT22;2624;48.048;11.706;2023-02-15T13:59:48;8.00;99.90
5210;DHT22;2624;48.048;11.706;2023-02-15T14:05:10;8.40;99.90
5210;DHT22;2624;48.048;11.706;2023-02-15T14:10:35;8.10;99.90
5210;DHT22;2624;48.048;11.706;2023-02-15T14:15:42;8.40;99.90
5210;DHT22;2624;48.048;11.706;2023-02-15T14:20:57;8.40;99.90
5210;DHT22;2624;48.048;11.706;2023-02-15T14:26:02;8.40;99.90
5210;DHT22;2624;48.048;11.706;2023-02-15T14:31:09;8.30;99.90
5210;DHT22;2624;48.048;11.706;2023-02-15T14:36:17;7.30;99.90
5210;DHT22;2624;48.048;11.706;2023-02-15T14:41:25;7.10;99.90
5210;DHT22;2624;48.048;11.706;2023-02-15T14:46:34;7.00;99.90
5210;DHT22;2624;48.048;11.706;2023-02-15T14:52:02;7.30;99.90
5210;DHT22;2624;48.048;11.706;2023-02-15T14:57:23;7.20;99.90
5210;DHT22;2624;48.048;11.706;2023-02-15T15:02:28;7.70;99.90
5210;DHT22;2624;48.048;11.706;2023-02-15T15:07:41;7.80;99.90
5210;DHT22;2624;48.048;11.706;2023-02-15T15:12:45;7.40;99.90
5210;DHT22;2624;48.048;11.706;2023-02-15T15:17:56;7.50;99.90
5210;DHT22;2624;48.048;11.706;2023-02-15T15:28:57;8.20;99.90
5210;DHT22;2624;48.048;11.706;2023-02-15T15:34:19;8.30;99.90
5210;DHT22;2624;48.048;11.706;2023-02-15T15:50:39;7.50;99.90
5210;DHT22;2624;48.048;11.706;2023-02-15T15:55:43;7.20;99.90
5210;DHT22;2624;48.048;11.706;2023-02-15T16:00:50;6.90;99.90
5210;DHT22;2624;48.048;11.706;2023-02-15T16:05:53;7.00;99.90
5210;DHT22;2624;48.048;11.706;2023-02-15T16:10:55;7.00;99.90
5210;DHT22;2624;48.048;11.706;2023-02-15T16:15:59;7.20;99.90
5210;DHT22;2624;48.048;11.706;2023-02-15T16:21:01;7.20;99.90
5210;DHT22;2624;48.048;11.706;2023-02-15T16:26:07;7.20;99.90
5210;DHT22;2624;48.048;11.706;2023-02-15T16:31:15;7.10;99.90
5210;DHT22;2624;48.048;11.706;2023-02-15T16:36:21;7.20;99.90
5210;DHT22;2624;48.048;11.706;2023-02-15T16:41:25;7.10;99.90
5210;DHT22;2624;48.048;11.706;2023-02-15T16:46:31;7.00;99.90
5210;DHT22;2624;48.048;11.706;2023-02-15T16:51:35;6.80;99.90
5210;DHT22;2624;48.048;11.706;2023-02-15T16:56:37;6.90;99.90
5210;DHT22;2624;48.048;11.706;2023-02-15T17:01:44;6.70;99.90
5210;DHT22;2624;48.048;11.706;2023-02-15T17:06:58;6.70;99.90
5210;DHT22;2624;48.048;11.706;2023-02-15T17:12:00;6.30;99.90
5210;DHT22;2624;48.048;11.706;2023-02-15T17:17:10;6.20;99.90
5210;DHT22;2624;48.048;11.706;2023-02-15T17:22:18;6.10;99.90
5210;DHT22;2624;48.048;11.706;2023-02-15T17:27:24;6.20;99.90
5210;DHT22;2624;48.048;11.706;2023-02-15T17:32:30;6.10;99.90
5210;DHT22;2624;48.048;11.706;2023-02-15T17:37:43;5.90;99.90
5210;DHT22;2624;48.048;11.706;2023-02-15T17:42:45;6.10;99.90
5210;DHT22;2624;48.048;11.706;2023-02-15T17:47:48;5.90;99.90
5210;DHT22;2624;48.048;11.706;2023-02-15T17:52:52;5.90;99.90
5210;DHT22;2624;48.048;11.706;2023-02-15T17:57:54;5.90;99.90
5210;DHT22;2624;48.048;11.706;2023-02-15T18:02:57;6.00;99.90
5210;DHT22;2624;48.048;11.706;2023-02-15T18:08:18;6.00;99.90
5210;DHT22;2624;48.048;11.706;2023-02-15T18:13:39;5.90;99.90
5210;DHT22;2624;48.048;11.706;2023-02-15T18:18:43;5.60;99.90
5210;DHT22;2624;48.048;11.706;2023-02-15T18:23:45;5.80;99.90
5210;DHT22;2624;48.048;11.706;2023-02-15T18:28:47;5.60;99.90
5210;DHT22;2624;48.048;11.706;2023-02-15T18:33:53;5.40;99.90
5210;DHT22;2624;48.048;11.706;2023-02-15T18:38:55;5.40;99.90
5210;DHT22;2624;48.048;11.706;2023-02-15T18:43:57;5.50;99.90
5210;DHT22;2624;48.048;11.706;2023-02-15T18:49:00;5.50;99.90
5210;DHT22;2624;48.048;11.706;2023-02-15T18:54:02;5.40;99.90
5210;DHT22;2624;48.048;11.706;2023-02-15T18:59:04;5.30;99.90
5210;DHT22;2624;48.048;11.706;2023-02-15T19:04:07;5.10;99.90
5210;DHT22;2624;48.048;11.706;2023-02-15T19:09:13;5.10;99.90
5210;DHT22;2624;48.048;11.706;2023-02-15T19:14:25;5.10;99.90
5210;DHT22;2624;48.048;11.706;2023-02-15T19:19:29;5.10;99.90
5210;DHT22;2624;48.048;11.706;2023-02-15T19:24:36;4.90;99.90
5210;DHT22;2624;48.048;11.706;2023-02-15T19:29:39;3.40;99.90
5210;DHT22;2624;48.048;11.706;2023-02-15T19:34:42;2.90;99.90
5210;DHT22;2624;48.048;11.706;2023-02-15T19:39:44;3.30;99.90
5210;DHT22;2624;48.048;11.706;2023-02-15T19:44:46;2.80;99.90
5210;DHT22;2624;48.048;11.706;2023-02-15T19:49:49;3.40;99.90
5210;DHT22;2624;48.048;11.706;2023-02-15T19:54:52;4.00;99.90
5210;DHT22;2624;48.048;11.706;2023-02-15T19:59:54;4.30;99.90
5210;DHT22;2624;48.048;11.706;2023-02-15T20:04:57;4.30;99.90
5210;DHT22;2624;48.048;11.706;2023-02-15T20:09:59;4.20;99.90
5210;DHT22;2624;48.048;11.706;2023-02-15T20:15:07;4.20;99.90
5210;DHT22;2624;48.048;11.706;2023-02-15T20:20:19;4.10;99.90
5210;DHT22;2624;48.048;11.706;2023-02-15T20:25:25;3.20;99.90
5210;DHT22;2624;48.048;11.706;2023-02-15T20:30:29;3.70;99.90
5210;DHT22;2624;48.048;11.706;2023-02-15T20:35:32;3.90;99.90
5210;DHT22;2624;48.048;11.706;2023-02-15T20:40:35;3.80;99.90
5210;DHT22;2624;48.048;11.706;2023-02-15T20:45:57;3.90;99.90
5210;DHT22;2624;48.048;11.706;2023-02-15T20:51:01;3.70;99.90
5210;DHT22;2624;48.048;11.706;2023-02-15T20:56:03;3.60;99.90
5210;DHT22;2624;48.048;11.706;2023-02-15T21:01:08;3.40;99.90
5210;DHT22;2624;48.048;11.706;2023-02-15T21:06:13;2.80;99.90
5210;DHT22;2624;48.048;11.706;2023-02-15T21:11:17;3.10;99.90
5210;DHT22;2624;48.048;11.706;2023-02-15T21:16:20;3.40;99.90
5210;DHT22;2624;48.048;11.706;2023-02-15T21:21:23;3.40;99.90
5210;DHT22;2624;48.048;11.706;2023-02-15T21:26:25;3.30;99.90
5210;DHT22;2624;48.048;11.706;2023-02-15T21:31:27;3.10;99.90
5210;DHT22;2624;48.048;11.706;2023-02-15T21:36:30;3.20;99.90
5210;DHT22;2624;48.048;11.706;2023-02-15T21:41:32;3.20;99.90
5210;DHT22;2624;48.048;11.706;2023-02-15T21:46:51;3.20;99.90
5210;DHT22;2624;48.048;11.706;2023-02-15T21:52:13;3.10;99.90
5210;DHT22;2624;48.048;11.706;2023-02-15T21:57:17;3.10;99.90
5210;DHT22;2624;48.048;11.706;2023-02-15T22:02:27;3.00;99.90
5210;DHT22;2624;48.048;11.706;2023-02-15T22:07:31;2.90;99.90
5210;DHT22;2624;48.048;11.706;2023-02-15T22:12:32;2.70;99.90
5210;DHT22;2624;48.048;11.706;2023-02-15T22:17:34;2.80;99.90
5210;DHT22;2624;48.048;11.706;2023-02-15T22:22:37;2.60;99.90
5210;DHT22;2624;48.048;11.706;2023-02-15T22:27:40;2.00;99.90
5210;DHT22;2624;48.048;11.706;2023-02-15T22:32:42;2.50;99.90
5210;DHT22;2624;48.048;11.706;2023-02-15T22:37:46;1.70;99.90
5210;DHT22;2624;48.048;11.706;2023-02-15T22:42:49;1.40;99.90
5210;DHT22;2624;48.048;11.706;2023-02-15T22:47:53;1.20;99.90
5210;DHT22;2624;48.048;11.706;2023-02-15T22:52:58;1.10;99.90
5210;DHT22;2624;48.048;11.706;2023-02-15T22:58:00;1.00;99.90
5210;DHT22;2624;48.048;11.706;2023-02-15T23:03:12;1.00;99.90
5210;DHT22;2624;48.048;11.706;2023-02-15T23:08:15;1.00;99.90
5210;DHT22;2624;48.048;11.706;2023-02-15T23:13:20;0.90;99.90
5210;DHT22;2624;48.048;11.706;2023-02-15T23:18:25;0.80;99.90
5210;DHT22;2624;48.048;11.706;2023-02-15T23:23:31;1.30;99.90
5210;DHT22;2624;48.048;11.706;2023-02-15T23:28:36;1.20;99.90
5210;DHT22;2624;48.048;11.706;2023-02-15T23:33:38;1.10;99.90
5210;DHT22;2624;48.048;11.706;2023-02-15T23:38:41;1.20;99.90
5210;DHT22;2624;48.048;11.706;2023-02-15T23:43:45;1.00;99.90
5210;DHT22;2624;48.048;11.706;2023-02-15T23:48:48;0.80;99.90
5210;DHT22;2624;48.048;11.706;2023-02-15T23:53:51;1.30;99.90
5210;DHT22;2624;48.048;11.706;2023-02-15T23:58:52;1.50;99.90
